Time;durP1;ratioP1;P1;durP2;ratioP2;P2;SDS_P1;SDS_P2;PMS_P1;PMS_P2;Temp;Humidity;BMP_temperature;BMP_pressure;BME280_temperature;BME280_humidity;BME280_pressure;Samples;Min_cycle;Max_cycle;Signal;HPM_P1;HPM_P2
2023/02/22 00:00:39;;;;;;;;;;;;;;;;;;5003163;28;5602;-55
2023/02/22 00:03:06;;;;;;;;;;;;;;;;;;5007992;28;4725;-56
2023/02/22 00:05:31;;;;;;;;;;;;;;;;;;5011301;28;1145;-56
2023/02/22 00:07:57;;;;;;;;;;;;;;;;;;5007232;28;4465;-55
2023/02/22 00:10:22;;;;;;;;;;;;;;;;;;5005944;28;4991;-56
2023/02/22 00:12:48;;;;;;;;;;;;;;;;;;5005842;28;5044;-56
2023/02/22 00:15:14;;;;;;;;;;;;;;;;;;4989707;28;5075;-56
2023/02/22 00:17:40;;;;;;;;;;;;;;;;;;5009524;28;3451;-56
2023/02/22 00:20:06;;;;;;;;;;;;;;;;;;5005473;28;5307;-55
2023/02/22 00:22:32;;;;;;;;;;;;;;;;;;5004975;28;5034;-56
2023/02/22 00:24:57;;;;;;;;;;;;;;;;;;4996761;28;5119;-55
2023/02/22 00:27:22;;;;;;;;;;;;;;;;;;5006406;28;5049;-54
2023/02/22 00:29:49;;;;;;;;;;;;;;;;;;5005628;28;5060;-54
2023/02/22 00:32:14;;;;;;;;;;;;;;;;;;4995702;28;3517;-56
2023/02/22 00:34:39;;;;;;;;;;;;;;;;;;5003030;28;4677;-55
2023/02/22 00:37:05;;;;;;;;;;;;;;;;;;4997477;28;5111;-55
2023/02/22 00:39:30;;;;;;;;;;;;;;;;;;4998959;28;5070;-56
2023/02/22 00:41:55;;;;;;;;;;;;;;;;;;5002143;28;5155;-56
2023/02/22 00:44:20;;;;;;;;;;;;;;;;;;5005253;28;3270;-56
2023/02/22 00:46:46;;;;;;;;;;;;;;;;;;5006711;28;4467;-56
2023/02/22 00:49:11;;;;;;;;;;;;;;;;;;5002838;28;5265;-56
2023/02/22 00:51:36;;;;;;;;;;;;;;;;;;5002530;28;4706;-56
2023/02/22 00:54:02;;;;;;;;;;;;;;;;;;5003647;28;5093;-56
2023/02/22 00:56:27;;;;;;;;;;;;;;;;;;5006475;28;3328;-56
2023/02/22 00:58:52;;;;;;;;;;;;;;;;;;5001360;28;4951;-56
2023/02/22 01:01:17;;;;;;;;;;;;;;;;;;5002078;28;5373;-55
2023/02/22 01:03:43;;;;;;;;;;;;;;;;;;5003516;28;5003;-56
2023/02/22 01:06:09;;;;;;;;;;;;;;;;;;4986191;28;5080;-56
2023/02/22 01:08:34;;;;;;;;;;;;;;;;;;5003515;28;3308;-56
2023/02/22 01:10:59;;;;;;;;;;;;;;;;;;5005073;28;5087;-56
2023/02/22 01:13:24;;;;;;;;;;;;;;;;;;4994253;28;5144;-56
2023/02/22 01:15:50;;;;;;;;;;;;;;;;;;5005568;28;5018;-56
2023/02/22 01:18:16;;;;;;;;;;;;;;;;;;5008391;28;5080;-56
2023/02/22 01:20:45;;;;;;;;;;;;;;;;;;5007132;28;3333;-56
2023/02/22 01:23:11;;;;;;;;;;;;;;;;;;5002573;28;4413;-56
2023/02/22 01:25:36;;;;;;;;;;;;;;;;;;4999245;28;4946;-55
2023/02/22 01:28:01;;;;;;;;;;;;;;;;;;5006005;28;4914;-56
2023/02/22 01:30:28;;;;;;;;;;;;;;;;;;5011260;28;5516;-55
2023/02/22 01:32:53;;;;;;;;;;;;;;;;;;5007896;28;5532;-56
2023/02/22 01:35:20;;;;;;;;;;;;;;;;;;5011856;28;3356;-56
2023/02/22 01:37:45;;;;;;;;;;;;;;;;;;4987430;28;4534;-56
2023/02/22 01:40:15;;;;;;;;;;;;;;;;;;5008418;28;5223;-56
2023/02/22 01:42:40;;;;;;;;;;;;;;;;;;5006398;28;4536;-56
2023/02/22 01:45:24;;;;;;;;;;;;;;;;;;5009034;28;5558;-56
2023/02/22 01:47:51;;;;;;;;;;;;;;;;;;5008680;28;5025;-56
2023/02/22 01:50:17;;;;;;;;;;;;;;;;;;5008946;28;3719;-56
2023/02/22 01:52:42;;;;;;;;;;;;;;;;;;5011916;28;4975;-56
2023/02/22 01:55:07;;;;;;;;;;;;;;;;;;5007916;28;5124;-56
2023/02/22 01:57:34;;;;;;;;;;;;;;;;;;5006238;28;5178;-56
2023/02/22 02:00:00;;;;;;;;;;;;;;;;;;5009437;28;5093;-56
2023/02/22 02:02:26;;;;;;;;;;;;;;;;;;5004341;28;3468;-56
2023/02/22 02:04:55;;;;;;;;;;;;;;;;;;5006746;28;4966;-56
2023/02/22 02:07:20;;;;;;;;;;;;;;;;;;4994489;28;5029;-55
2023/02/22 02:09:48;;;;;;;;;;;;;;;;;;5010223;28;4953;-55
2023/02/22 02:12:14;;;;;;;;;;;;;;;;;;5005585;28;5072;-55
2023/02/22 02:14:40;;;;;;;;;;;;;;;;;;4985730;28;3844;-55
2023/02/22 02:17:11;;;;;;;;;;;;;;;;;;5006994;28;4968;-55
2023/02/22 02:19:39;;;;;;;;;;;;;;;;;;5001734;28;4590;-56
2023/02/22 02:22:11;;;;;;;;;;;;;;;;;;5001743;28;5067;-57
2023/02/22 02:24:56;;;;;;;;;;;;;;;;;;5003134;28;5166;-56
2023/02/22 02:27:22;;;;;;;;;;;;;;;;;;4980287;28;4937;-55
2023/02/22 02:29:48;;;;;;;;;;;;;;;;;;5007993;28;5018;-56
2023/02/22 02:32:25;;;;;;;;;;;;;;;;;;5007698;28;3471;-55
2023/02/22 02:34:57;;;;;;;;;;;;;;;;;;5005844;28;5433;-55
2023/02/22 02:37:22;;;;;;;;;;;;;;;;;;4992768;28;5152;-56
2023/02/22 02:39:50;;;;;;;;;;;;;;;;;;5003588;28;5072;-56
2023/02/22 02:42:17;;;;;;;;;;;;;;;;;;4989637;28;5312;-56
2023/02/22 02:44:46;;;;;;;;;;;;;;;;;;5007215;28;3365;-56
2023/02/22 02:47:19;;;;;;;;;;;;;;;;;;4996354;28;5021;-56
2023/02/22 02:49:50;;;;;;;;;;;;;;;;;;5008609;28;5049;-56
2023/02/22 02:52:15;;;;;;;;;;;;;;;;;;4988041;28;4897;-56
2023/02/22 02:54:40;;;;;;;;;;;;;;;;;;5008465;28;4458;-56
2023/02/22 02:57:08;;;;;;;;;;;;;;;;;;5004796;28;4704;-56
2023/02/22 02:59:36;;;;;;;;;;;;;;;;;;5010133;28;1071;-56
2023/02/22 03:02:01;;;;;;;;;;;;;;;;;;5009121;28;4473;-56
2023/02/22 03:04:29;;;;;;;;;;;;;;;;;;5008332;28;5125;-55
2023/02/22 03:07:04;;;;;;;;;;;;;;;;;;5003876;28;5256;-56
2023/02/22 03:09:34;;;;;;;;;;;;;;;;;;5009262;28;4769;-56
2023/02/22 03:12:01;;;;;;;;;;;;;;;;;;5007907;28;5045;-54
2023/02/22 03:14:47;;;;;;;;;;;;;;;;;;5007152;28;3258;-56
2023/02/22 03:17:22;;;;;;;;;;;;;;;;;;5008414;28;4980;-55
2023/02/22 03:19:52;;;;;;;;;;;;;;;;;;5006235;28;4898;-55
2023/02/22 03:22:31;;;;;;;;;;;;;;;;;;5005063;28;5215;-56
2023/02/22 03:25:05;;;;;;;;;;;;;;;;;;5004679;28;4573;-56
2023/02/22 03:27:33;;;;;;;;;;;;;;;;;;5006769;28;5059;-55
2023/02/22 03:30:00;;;;;;;;;;;;;;;;;;5003189;28;5133;-55
2023/02/22 03:32:26;;;;;;;;;;;;;;;;;;5009205;28;1074;-56
2023/02/22 03:34:55;;;;;;;;;;;;;;;;;;5007190;28;4963;-56
2023/02/22 03:37:22;;;;;;;;;;;;;;;;;;4991204;28;5115;-56
2023/02/22 03:39:48;;;;;;;;;;;;;;;;;;5004544;28;5277;-56
2023/02/22 03:42:18;;;;;;;;;;;;;;;;;;4989566;28;5210;-56
2023/02/22 03:44:43;;;;;;;;;;;;;;;;;;4991523;28;1922;-56
2023/02/22 03:47:10;;;;;;;;;;;;;;;;;;4999769;28;4458;-54
2023/02/22 03:49:36;;;;;;;;;;;;;;;;;;5008209;28;5023;-56
2023/02/22 03:52:02;;;;;;;;;;;;;;;;;;4985515;28;4554;-56
2023/02/22 03:54:27;;;;;;;;;;;;;;;;;;4997437;28;4695;-56
2023/02/22 03:56:56;;;;;;;;;;;;;;;;;;5001369;28;4635;-56
2023/02/22 03:59:24;;;;;;;;;;;;;;;;;;4987041;28;3545;-54
2023/02/22 04:01:50;;;;;;;;;;;;;;;;;;4992667;28;4487;-54
2023/02/22 04:04:17;;;;;;;;;;;;;;;;;;5008091;28;4504;-56
2023/02/22 04:06:42;;;;;;;;;;;;;;;;;;5002836;28;5041;-56
2023/02/22 04:09:07;;;;;;;;;;;;;;;;;;5007103;28;4932;-56
2023/02/22 04:11:33;;;;;;;;;;;;;;;;;;5004938;28;3431;-56
2023/02/22 04:13:59;;;;;;;;;;;;;;;;;;5011666;28;5161;-56
2023/02/22 04:16:24;;;;;;;;;;;;;;;;;;5008731;28;4979;-56
2023/02/22 04:18:49;;;;;;;;;;;;;;;;;;5010973;28;5078;-57
2023/02/22 04:21:15;;;;;;;;;;;;;;;;;;5006748;28;4666;-56
2023/02/22 04:23:40;;;;;;;;;;;;;;;;;;5005514;28;1975;-57
2023/02/22 04:26:05;;;;;;;;;;;;;;;;;;5004151;28;4589;-56
2023/02/22 04:28:31;;;;;;;;;;;;;;;;;;5004692;28;5023;-56
2023/02/22 04:30:56;;;;;;;;;;;;;;;;;;5007416;28;5134;-56
2023/02/22 04:33:21;;;;;;;;;;;;;;;;;;5007646;28;5213;-57
2023/02/22 04:35:46;;;;;;;;;;;;;;;;;;5008246;28;3411;-56
2023/02/22 04:38:12;;;;;;;;;;;;;;;;;;5006758;28;4441;-57
2023/02/22 04:40:37;;;;;;;;;;;;;;;;;;5009097;28;4654;-56
2023/02/22 04:43:02;;;;;;;;;;;;;;;;;;5006071;28;5002;-56
2023/02/22 04:45:27;;;;;;;;;;;;;;;;;;5006161;28;5591;-56
2023/02/22 04:47:53;;;;;;;;;;;;;;;;;;5003330;28;4678;-56
2023/02/22 04:50:18;;;;;;;;;;;;;;;;;;4987712;28;3430;-57
2023/02/22 04:52:44;;;;;;;;;;;;;;;;;;5000046;28;4918;-56
2023/02/22 04:55:09;;;;;;;;;;;;;;;;;;4996924;28;5360;-56
2023/02/22 04:57:35;;;;;;;;;;;;;;;;;;5005061;28;5287;-56
2023/02/22 05:00:00;;;;;;;;;;;;;;;;;;5001815;28;4493;-56
2023/02/22 05:02:25;;;;;;;;;;;;;;;;;;5003640;28;3272;-57
2023/02/22 05:04:50;;;;;;;;;;;;;;;;;;5003120;28;5025;-56
2023/02/22 05:07:16;;;;;;;;;;;;;;;;;;5006284;28;4768;-56
2023/02/22 05:09:41;;;;;;;;;;;;;;;;;;5003586;28;5155;-55
2023/02/22 05:12:07;;;;;;;;;;;;;;;;;;4985725;28;5028;-56
2023/02/22 05:14:32;;;;;;;;;;;;;;;;;;5003515;28;3585;-56
2023/02/22 05:16:57;;;;;;;;;;;;;;;;;;5005752;28;4706;-56
2023/02/22 05:19:23;;;;;;;;;;;;;;;;;;5007060;28;5072;-56
2023/02/22 05:21:48;;;;;;;;;;;;;;;;;;4997454;28;5094;-56
2023/02/22 05:24:13;;;;;;;;;;;;;;;;;;5005585;28;5084;-56
2023/02/22 05:26:39;;;;;;;;;;;;;;;;;;5009291;28;2341;-55
2023/02/22 05:29:04;;;;;;;;;;;;;;;;;;5005477;28;5039;-56
2023/02/22 05:31:29;;;;;;;;;;;;;;;;;;5009156;28;5087;-56
2023/02/22 05:33:55;;;;;;;;;;;;;;;;;;5006480;28;5258;-56
2023/02/22 05:36:20;;;;;;;;;;;;;;;;;;5001455;28;5919;-55
2023/02/22 05:38:45;;;;;;;;;;;;;;;;;;5010191;28;1234;-56
2023/02/22 05:41:11;;;;;;;;;;;;;;;;;;5002604;28;4955;-56
2023/02/22 05:43:36;;;;;;;;;;;;;;;;;;5006306;28;5024;-56
2023/02/22 05:46:02;;;;;;;;;;;;;;;;;;5002340;28;4457;-56
2023/02/22 05:48:27;;;;;;;;;;;;;;;;;;4994281;28;5199;-56
2023/02/22 05:50:52;;;;;;;;;;;;;;;;;;5004805;28;4536;-55
2023/02/22 05:53:17;;;;;;;;;;;;;;;;;;5002347;28;3415;-56
2023/02/22 05:55:43;;;;;;;;;;;;;;;;;;5002047;28;5038;-56
2023/02/22 05:58:08;;;;;;;;;;;;;;;;;;5000033;28;4992;-56
2023/02/22 06:00:33;;;;;;;;;;;;;;;;;;5006192;28;5066;-56
2023/02/22 06:03:08;;;;;;;;;;;;;;;;;;5001422;28;5084;-55
2023/02/22 06:05:33;;;;;;;;;;;;;;;;;;4986951;28;3419;-56
2023/02/22 06:07:59;;;;;;;;;;;;;;;;;;5001945;28;4520;-55
2023/02/22 06:10:24;;;;;;;;;;;;;;;;;;4981624;28;5162;-57
2023/02/22 06:12:49;;;;;;;;;;;;;;;;;;4992884;28;5112;-56
2023/02/22 06:15:15;;;;;;;;;;;;;;;;;;4998250;28;5123;-56
2023/02/22 06:17:40;;;;;;;;;;;;;;;;;;5002783;28;3455;-56
2023/02/22 06:20:07;;;;;;;;;;;;;;;;;;5008992;28;4990;-56
2023/02/22 06:22:32;;;;;;;;;;;;;;;;;;4995977;28;5043;-57
2023/02/22 06:24:57;;;;;;;;;;;;;;;;;;4982475;28;5476;-63
2023/02/22 06:27:22;;;;;;;;;;;;;;;;;;4999256;28;5143;-60
2023/02/22 06:29:48;;;;;;;;;;;;;;;;;;5000343;28;4904;-57
2023/02/22 06:32:13;;;;;;;;;;;;;;;;;;4998654;28;3574;-61
2023/02/22 06:34:39;;;;;;;;;;;;;;;;;;4994920;28;5071;-57
2023/02/22 06:37:05;;;;;;;;;;;;;;;;;;5000871;28;5224;-60
2023/02/22 06:39:30;;;;;;;;;;;;;;;;;;5003826;28;5056;-61
2023/02/22 06:41:56;;;;;;;;;;;;;;;;;;5004066;28;4548;-58
2023/02/22 06:44:22;;;;;;;;;;;;;;;;;;5008200;28;3349;-60
2023/02/22 06:46:48;;;;;;;;;;;;;;;;;;5003842;28;5143;-59
2023/02/22 06:49:14;;;;;;;;;;;;;;;;;;5005923;28;5117;-61
2023/02/22 06:51:39;;;;;;;;;;;;;;;;;;4992886;28;5044;-59
2023/02/22 06:54:04;;;;;;;;;;;;;;;;;;5014912;28;5052;-59
2023/02/22 06:56:30;;;;;;;;;;;;;;;;;;5003402;28;3576;-63
2023/02/22 06:58:55;;;;;;;;;;;;;;;;;;5004233;28;4670;-64
2023/02/22 07:01:20;;;;;;;;;;;;;;;;;;4993724;28;4979;-64
2023/02/22 07:03:47;;;;;;;;;;;;;;;;;;4994851;28;5651;-68
2023/02/22 07:06:12;;;;;;;;;;;;;;;;;;4994277;28;5207;-63
2023/02/22 07:08:38;;;;;;;;;;;;;;;;;;5007585;28;1133;-63
2023/02/22 07:11:03;;;;;;;;;;;;;;;;;;4993164;28;4859;-60
2023/02/22 07:13:28;;;;;;;;;;;;;;;;;;5010365;28;5086;-65
2023/02/22 07:15:54;;;;;;;;;;;;;;;;;;4996664;28;5136;-62
2023/02/22 07:18:19;;;;;;;;;;;;;;;;;;4995900;28;4488;-63
2023/02/22 07:20:44;;;;;;;;;;;;;;;;;;4996076;28;1098;-65
2023/02/22 07:23:12;;;;;;;;;;;;;;;;;;4992252;28;4756;-65
2023/02/22 07:25:37;;;;;;;;;;;;;;;;;;4991076;28;5237;-63
2023/02/22 07:28:03;;;;;;;;;;;;;;;;;;4995251;28;5354;-61
2023/02/22 07:30:32;;;;;;;;;;;;;;;;;;4996871;28;5130;-65
2023/02/22 07:32:58;;;;;;;;;;;;;;;;;;4998125;28;5704;-67
2023/02/22 07:35:25;;;;;;;;;;;;;;;;;;5008497;28;3142;-63
2023/02/22 07:37:50;;;;;;;;;;;;;;;;;;5001886;28;5142;-65
2023/02/22 07:40:16;;;;;;;;;;;;;;;;;;5007285;28;5159;-65
2023/02/22 07:42:51;;;;;;;;;;;;;;;;;;4981324;28;4840;-59
2023/02/22 07:45:17;;;;;;;;;;;;;;;;;;5010112;28;5624;-66
2023/02/22 07:47:42;;;;;;;;;;;;;;;;;;5003593;28;3311;-66
2023/02/22 07:50:07;;;;;;;;;;;;;;;;;;5004649;28;5236;-67
2023/02/22 07:52:33;;;;;;;;;;;;;;;;;;5011006;28;4856;-63
2023/02/22 07:54:59;;;;;;;;;;;;;;;;;;5006611;28;5095;-66
2023/02/22 07:57:24;;;;;;;;;;;;;;;;;;5009123;28;4895;-66
2023/02/22 07:59:50;;;;;;;;;;;;;;;;;;5008119;28;4585;-67
2023/02/22 08:02:15;;;;;;;;;;;;;;;;;;5007131;28;3339;-63
2023/02/22 08:04:40;;;;;;;;;;;;;;;;;;5008394;28;4627;-64
2023/02/22 08:07:06;;;;;;;;;;;;;;;;;;5011146;28;4488;-65
2023/02/22 08:09:31;;;;;;;;;;;;;;;;;;5002792;28;5101;-63
2023/02/22 08:11:56;;;;;;;;;;;;;;;;;;5011346;28;5065;-64
2023/02/22 08:14:22;;;;;;;;;;;;;;;;;;5006143;28;2135;-65
2023/02/22 08:16:47;;;;;;;;;;;;;;;;;;5004227;28;5003;-66
2023/02/22 08:19:12;;;;;;;;;;;;;;;;;;5007281;28;5145;-67
2023/02/22 08:21:38;;;;;;;;;;;;;;;;;;5005143;28;4467;-66
2023/02/22 08:24:03;;;;;;;;;;;;;;;;;;4996266;28;4652;-66
2023/02/22 08:26:28;;;;;;;;;;;;;;;;;;5002980;28;3200;-66
2023/02/22 08:28:53;;;;;;;;;;;;;;;;;;5003497;28;4871;-66
2023/02/22 08:31:19;;;;;;;;;;;;;;;;;;5012251;28;5453;-66
2023/02/22 08:33:46;;;;;;;;;;;;;;;;;;5007308;28;4556;-67
2023/02/22 08:36:11;;;;;;;;;;;;;;;;;;5008821;28;4846;-66
2023/02/22 08:38:37;;;;;;;;;;;;;;;;;;5009517;28;1136;-65
2023/02/22 08:41:02;;;;;;;;;;;;;;;;;;5001417;28;5257;-67
2023/02/22 08:43:27;;;;;;;;;;;;;;;;;;5009854;28;4452;-66
2023/02/22 08:45:53;;;;;;;;;;;;;;;;;;5004088;28;5133;-66
2023/02/22 08:48:18;;;;;;;;;;;;;;;;;;5005410;28;5131;-66
2023/02/22 08:50:44;;;;;;;;;;;;;;;;;;5010305;28;1324;-66
2023/02/22 08:53:10;;;;;;;;;;;;;;;;;;5001078;28;5418;-66
2023/02/22 08:55:36;;;;;;;;;;;;;;;;;;4997019;28;5013;-67
2023/02/22 08:58:01;;;;;;;;;;;;;;;;;;5008595;28;4479;-62
2023/02/22 09:00:28;;;;;;;;;;;;;;;;;;5007510;28;4516;-66
2023/02/22 09:02:53;;;;;;;;;;;;;;;;;;5007858;28;4707;-66
2023/02/22 09:05:19;;;;;;;;;;;;;;;;;;5001384;28;1918;-66
2023/02/22 09:07:44;;;;;;;;;;;;;;;;;;5008413;28;4958;-66
2023/02/22 09:10:14;;;;;;;;;;;;;;;;;;5007546;28;5537;-67
2023/02/22 09:12:39;;;;;;;;;;;;;;;;;;5012002;28;5168;-65
2023/02/22 09:15:05;;;;;;;;;;;;;;;;;;5006335;28;5245;-66
2023/02/22 09:17:30;;;;;;;;;;;;;;;;;;5005551;28;1149;-67
2023/02/22 09:19:55;;;;;;;;;;;;;;;;;;5001984;28;5001;-66
2023/02/22 09:22:20;;;;;;;;;;;;;;;;;;5003394;28;5022;-64
2023/02/22 09:24:46;;;;;;;;;;;;;;;;;;5003706;28;5316;-66
2023/02/22 09:27:11;;;;;;;;;;;;;;;;;;5006292;28;5031;-67
2023/02/22 09:29:36;;;;;;;;;;;;;;;;;;5004851;28;4444;-66
2023/02/22 09:32:03;;;;;;;;;;;;;;;;;;5006446;28;4704;-66
2023/02/22 09:34:28;;;;;;;;;;;;;;;;;;4990528;28;5038;-64
2023/02/22 09:36:54;;;;;;;;;;;;;;;;;;5003336;28;5192;-64
2023/02/22 09:39:20;;;;;;;;;;;;;;;;;;5006730;28;4557;-66
2023/02/22 09:41:49;;;;;;;;;;;;;;;;;;4999541;28;2045;-67
2023/02/22 09:44:19;;;;;;;;;;;;;;;;;;5009176;28;5358;-66
2023/02/22 09:46:45;;;;;;;;;;;;;;;;;;5007972;28;5154;-66
2023/02/22 09:49:20;;;;;;;;;;;;;;;;;;5003968;28;4639;-57
2023/02/22 09:51:48;;;;;;;;;;;;;;;;;;5003279;28;5052;-66
2023/02/22 09:54:18;;;;;;;;;;;;;;;;;;5010796;28;4630;-64
2023/02/22 09:56:45;;;;;;;;;;;;;;;;;;5003357;28;3577;-64
2023/02/22 09:59:11;;;;;;;;;;;;;;;;;;4984068;28;4872;-64
2023/02/22 10:01:44;;;;;;;;;;;;;;;;;;5009298;28;5088;-66
2023/02/22 10:04:17;;;;;;;;;;;;;;;;;;4977434;28;4502;-65
2023/02/22 10:06:43;;;;;;;;;;;;;;;;;;5007199;28;4987;-67
2023/02/22 10:09:08;;;;;;;;;;;;;;;;;;4993940;28;5017;-63
2023/02/22 10:11:45;;;;;;;;;;;;;;;;;;4988977;28;1748;-64
2023/02/22 10:14:29;;;;;;;;;;;;;;;;;;5006679;28;4967;-66
2023/02/22 10:16:56;;;;;;;;;;;;;;;;;;4993312;28;4994;-65
2023/02/22 10:19:25;;;;;;;;;;;;;;;;;;4999194;28;5738;-64
2023/02/22 10:22:06;;;;;;;;;;;;;;;;;;5004808;28;4599;-61
2023/02/22 10:24:44;;;;;;;;;;;;;;;;;;5008756;28;4882;-67
2023/02/22 10:27:15;;;;;;;;;;;;;;;;;;5005393;28;4429;-64
2023/02/22 10:29:41;;;;;;;;;;;;;;;;;;5007044;28;4708;-66
2023/02/22 10:32:10;;;;;;;;;;;;;;;;;;5012894;28;4954;-65
2023/02/22 10:34:54;;;;;;;;;;;;;;;;;;5006565;28;4676;-65
2023/02/22 10:37:24;;;;;;;;;;;;;;;;;;5012377;28;5035;-65
2023/02/22 10:39:51;;;;;;;;;;;;;;;;;;5007294;28;5025;-66
2023/02/22 10:42:16;;;;;;;;;;;;;;;;;;4994840;28;4751;-64
2023/02/22 10:44:42;;;;;;;;;;;;;;;;;;5001328;28;3445;-66
2023/02/22 10:47:10;;;;;;;;;;;;;;;;;;5007671;28;5011;-66
2023/02/22 10:49:35;;;;;;;;;;;;;;;;;;5007565;28;5069;-62
2023/02/22 10:52:01;;;;;;;;;;;;;;;;;;5002582;28;4957;-66
2023/02/22 10:54:31;;;;;;;;;;;;;;;;;;5009073;28;4672;-66
2023/02/22 10:56:56;;;;;;;;;;;;;;;;;;5006936;28;5053;-66
2023/02/22 10:59:29;;;;;;;;;;;;;;;;;;5004324;28;3564;-66
2023/02/22 11:01:54;;;;;;;;;;;;;;;;;;4999016;28;4462;-63
2023/02/22 11:04:23;;;;;;;;;;;;;;;;;;5002333;28;5181;-61
2023/02/22 11:06:57;;;;;;;;;;;;;;;;;;5007851;28;4496;-66
2023/02/22 11:09:23;;;;;;;;;;;;;;;;;;5009958;28;5109;-66
2023/02/22 11:11:48;;;;;;;;;;;;;;;;;;4997980;28;5508;-65
2023/02/22 11:14:24;;;;;;;;;;;;;;;;;;5001284;28;3494;-67
2023/02/22 11:16:50;;;;;;;;;;;;;;;;;;5009244;28;4596;-67
2023/02/22 11:19:19;;;;;;;;;;;;;;;;;;4991676;28;5120;-66
2023/02/22 11:21:44;;;;;;;;;;;;;;;;;;5006691;28;5072;-67
2023/02/22 11:24:10;;;;;;;;;;;;;;;;;;4993685;28;5015;-61
2023/02/22 11:26:40;;;;;;;;;;;;;;;;;;5001082;28;1748;-66
2023/02/22 11:29:09;;;;;;;;;;;;;;;;;;5001183;28;5058;-63
2023/02/22 11:31:39;;;;;;;;;;;;;;;;;;5013388;28;5039;-66
2023/02/22 11:34:04;;;;;;;;;;;;;;;;;;4991926;28;5082;-64
2023/02/22 11:36:39;;;;;;;;;;;;;;;;;;5009405;28;5105;-65
2023/02/22 11:39:04;;;;;;;;;;;;;;;;;;5000492;28;5079;-65
2023/02/22 11:41:33;;;;;;;;;;;;;;;;;;5005730;28;1219;-68
2023/02/22 11:44:22;;;;;;;;;;;;;;;;;;4997551;28;4446;-61
2023/02/22 11:46:47;;;;;;;;;;;;;;;;;;4995083;28;4631;-66
2023/02/22 11:49:16;;;;;;;;;;;;;;;;;;5009542;28;4893;-66
2023/02/22 11:51:41;;;;;;;;;;;;;;;;;;5008679;28;4643;-66
2023/02/22 11:54:06;;;;;;;;;;;;;;;;;;5004747;28;4908;-65
2023/02/22 11:56:32;;;;;;;;;;;;;;;;;;5003473;28;1363;-65
2023/02/22 11:59:06;;;;;;;;;;;;;;;;;;5007019;28;4586;-65
2023/02/22 12:01:50;;;;;;;;;;;;;;;;;;5010635;28;5183;-65
2023/02/22 12:04:35;;;;;;;;;;;;;;;;;;5007054;28;4475;-65
2023/02/22 12:07:15;;;;;;;;;;;;;;;;;;5008522;28;4462;-65
2023/02/22 12:09:41;;;;;;;;;;;;;;;;;;4998292;28;5054;-66
2023/02/22 12:12:25;;;;;;;;;;;;;;;;;;5003737;28;5199;-67
2023/02/22 12:14:57;;;;;;;;;;;;;;;;;;5008831;28;5041;-66
2023/02/22 12:17:34;;;;;;;;;;;;;;;;;;5007428;28;1143;-64
2023/02/22 12:20:26;;;;;;;;;;;;;;;;;;5009418;28;5047;-66
2023/02/22 12:22:59;;;;;;;;;;;;;;;;;;4992942;28;4496;-59
2023/02/22 12:25:25;;;;;;;;;;;;;;;;;;5003894;28;4992;-66
2023/02/22 12:27:51;;;;;;;;;;;;;;;;;;5000486;28;5014;-66
2023/02/22 12:30:22;;;;;;;;;;;;;;;;;;5006761;28;5280;-62
2023/02/22 12:32:50;;;;;;;;;;;;;;;;;;5000128;28;5030;-58
2023/02/22 12:35:25;;;;;;;;;;;;;;;;;;5010229;28;1069;-66
2023/02/22 12:37:54;;;;;;;;;;;;;;;;;;5004370;28;4976;-65
2023/02/22 12:40:22;;;;;;;;;;;;;;;;;;4984720;28;5041;-66
2023/02/22 12:42:51;;;;;;;;;;;;;;;;;;5005320;28;5305;-64
2023/02/22 12:45:23;;;;;;;;;;;;;;;;;;4999200;28;5007;-66
2023/02/22 12:47:51;;;;;;;;;;;;;;;;;;5002945;28;4958;-66
2023/02/22 12:50:18;;;;;;;;;;;;;;;;;;5004439;28;1117;-66
2023/02/22 12:53:02;;;;;;;;;;;;;;;;;;5002680;28;5017;-65
2023/02/22 12:55:32;;;;;;;;;;;;;;;;;;4988923;28;5095;-65
2023/02/22 12:57:59;;;;;;;;;;;;;;;;;;4987772;28;5038;-62
2023/02/22 13:00:42;;;;;;;;;;;;;;;;;;4999227;28;4991;-66
2023/02/22 13:03:19;;;;;;;;;;;;;;;;;;5004881;28;4933;-63
2023/02/22 13:05:45;;;;;;;;;;;;;;;;;;4998947;28;1986;-67
2023/02/22 13:08:30;;;;;;;;;;;;;;;;;;5007894;28;4873;-64
2023/02/22 13:10:56;;;;;;;;;;;;;;;;;;4985848;28;4838;-65
2023/02/22 13:13:34;;;;;;;;;;;;;;;;;;5023061;28;4714;-65
2023/02/22 13:15:59;;;;;;;;;;;;;;;;;;5006407;28;4894;-63
2023/02/22 13:18:24;;;;;;;;;;;;;;;;;;4998450;28;4887;-65
2023/02/22 13:20:56;;;;;;;;;;;;;;;;;;5008081;28;4456;-65
2023/02/22 13:23:31;;;;;;;;;;;;;;;;;;4989246;28;2310;-66
2023/02/22 13:25:59;;;;;;;;;;;;;;;;;;5000901;28;5164;-63
2023/02/22 13:28:29;;;;;;;;;;;;;;;;;;5013321;28;4974;-64
2023/02/22 13:31:05;;;;;;;;;;;;;;;;;;5017789;28;5578;-64
2023/02/22 13:33:30;;;;;;;;;;;;;;;;;;4992165;28;5081;-66
2023/02/22 13:36:11;;;;;;;;;;;;;;;;;;4996583;28;5427;-67
2023/02/22 13:39:12;;;;;;;;;;;;;;;;;;5012231;28;1308;-66
2023/02/22 13:41:37;;;;;;;;;;;;;;;;;;4954811;28;4998;-67
2023/02/22 13:44:17;;;;;;;;;;;;;;;;;;4998142;28;5235;-66
2023/02/22 13:47:01;;;;;;;;;;;;;;;;;;5009924;28;4970;-66
2023/02/22 13:49:27;;;;;;;;;;;;;;;;;;5003686;28;4884;-63
2023/02/22 13:51:52;;;;;;;;;;;;;;;;;;5009534;28;4487;-65
2023/02/22 13:54:36;;;;;;;;;;;;;;;;;;5007337;28;4730;-65
2023/02/22 13:57:02;;;;;;;;;;;;;;;;;;5012457;28;4977;-67
2023/02/22 13:59:28;;;;;;;;;;;;;;;;;;5010573;28;1236;-66
2023/02/22 14:01:54;;;;;;;;;;;;;;;;;;4989121;28;5021;-62
2023/02/22 14:04:28;;;;;;;;;;;;;;;;;;5001989;28;4557;-63
2023/02/22 14:06:54;;;;;;;;;;;;;;;;;;5019567;28;4926;-66
2023/02/22 14:09:49;;;;;;;;;;;;;;;;;;4992831;28;5576;-62
2023/02/22 14:12:29;;;;;;;;;;;;;;;;;;4991191;28;5072;-65
2023/02/22 14:15:13;;;;;;;;;;;;;;;;;;5004942;28;5058;-66
2023/02/22 14:17:45;;;;;;;;;;;;;;;;;;5003111;28;1102;-66
2023/02/22 14:20:18;;;;;;;;;;;;;;;;;;5005694;28;4447;-62
2023/02/22 14:22:43;;;;;;;;;;;;;;;;;;4999819;28;4637;-57
2023/02/22 14:25:28;;;;;;;;;;;;;;;;;;4989502;28;4594;-66
2023/02/22 14:27:53;;;;;;;;;;;;;;;;;;5005048;28;4871;-66
2023/02/22 14:30:29;;;;;;;;;;;;;;;;;;4988429;28;4757;-63
2023/02/22 14:32:54;;;;;;;;;;;;;;;;;;5008821;28;4552;-65
2023/02/22 14:35:21;;;;;;;;;;;;;;;;;;5009389;28;3300;-63
2023/02/22 14:37:53;;;;;;;;;;;;;;;;;;5001802;28;4572;-66
2023/02/22 14:40:24;;;;;;;;;;;;;;;;;;5000040;28;4500;-65
2023/02/22 14:43:03;;;;;;;;;;;;;;;;;;5006236;28;5143;-64
2023/02/22 14:45:32;;;;;;;;;;;;;;;;;;4985451;28;4704;-66
2023/02/22 14:48:12;;;;;;;;;;;;;;;;;;5005445;28;5020;-66
2023/02/22 14:50:40;;;;;;;;;;;;;;;;;;5000033;28;3299;-66
2023/02/22 14:53:11;;;;;;;;;;;;;;;;;;5010773;28;4630;-64
2023/02/22 14:55:40;;;;;;;;;;;;;;;;;;5006333;28;5012;-63
2023/02/22 14:58:09;;;;;;;;;;;;;;;;;;4994881;28;4618;-65
2023/02/22 15:00:41;;;;;;;;;;;;;;;;;;5017333;28;4734;-66
2023/02/22 15:03:17;;;;;;;;;;;;;;;;;;5008533;28;4714;-65
2023/02/22 15:05:43;;;;;;;;;;;;;;;;;;5008914;28;1910;-65
2023/02/22 15:08:08;;;;;;;;;;;;;;;;;;5011636;28;4811;-65
2023/02/22 15:10:41;;;;;;;;;;;;;;;;;;5016990;28;5271;-66
2023/02/22 15:13:36;;;;;;;;;;;;;;;;;;5003339;28;4965;-66
2023/02/22 15:16:02;;;;;;;;;;;;;;;;;;4996654;28;4694;-65
2023/02/22 15:18:28;;;;;;;;;;;;;;;;;;5025094;28;4771;-65
2023/02/22 15:20:57;;;;;;;;;;;;;;;;;;5001294;28;5116;-63
2023/02/22 15:23:29;;;;;;;;;;;;;;;;;;4999716;28;3566;-64
2023/02/22 15:25:54;;;;;;;;;;;;;;;;;;5007398;28;5179;-66
2023/02/22 15:28:19;;;;;;;;;;;;;;;;;;5009232;28;4876;-65
2023/02/22 15:30:44;;;;;;;;;;;;;;;;;;4977201;28;4727;-67
2023/02/22 15:33:15;;;;;;;;;;;;;;;;;;4999788;28;5055;-65
2023/02/22 15:35:40;;;;;;;;;;;;;;;;;;5003974;28;3668;-66
2023/02/22 15:38:16;;;;;;;;;;;;;;;;;;5012001;28;4595;-64
2023/02/22 15:40:44;;;;;;;;;;;;;;;;;;4984350;28;5153;-66
2023/02/22 15:43:22;;;;;;;;;;;;;;;;;;5010648;28;4883;-65
2023/02/22 15:45:49;;;;;;;;;;;;;;;;;;5010747;28;4955;-65
2023/02/22 15:48:15;;;;;;;;;;;;;;;;;;4999722;28;5070;-65
2023/02/22 15:50:44;;;;;;;;;;;;;;;;;;4988318;28;3340;-66
2023/02/22 15:53:25;;;;;;;;;;;;;;;;;;5007919;28;4480;-65
2023/02/22 15:55:54;;;;;;;;;;;;;;;;;;5000685;28;5181;-60
2023/02/22 15:58:24;;;;;;;;;;;;;;;;;;5004626;28;5084;-64
2023/02/22 16:00:59;;;;;;;;;;;;;;;;;;4988670;28;4526;-64
2023/02/22 16:03:31;;;;;;;;;;;;;;;;;;5009439;28;4676;-64
2023/02/22 16:05:57;;;;;;;;;;;;;;;;;;4989459;28;4549;-62
2023/02/22 16:08:23;;;;;;;;;;;;;;;;;;4983186;28;1126;-63
2023/02/22 16:11:12;;;;;;;;;;;;;;;;;;5007634;28;4889;-65
2023/02/22 16:13:37;;;;;;;;;;;;;;;;;;5005601;28;4486;-62
2023/02/22 16:16:05;;;;;;;;;;;;;;;;;;5003415;28;4992;-58
2023/02/22 16:18:35;;;;;;;;;;;;;;;;;;5006884;28;5225;-56
2023/02/22 16:21:01;;;;;;;;;;;;;;;;;;5010306;28;4564;-65
2023/02/22 16:23:26;;;;;;;;;;;;;;;;;;4999177;28;3333;-58
2023/02/22 16:26:05;;;;;;;;;;;;;;;;;;5012371;28;5295;-65
2023/02/22 16:28:32;;;;;;;;;;;;;;;;;;5008830;28;4805;-63
2023/02/22 16:30:58;;;;;;;;;;;;;;;;;;4995959;28;4894;-63
2023/02/22 16:33:23;;;;;;;;;;;;;;;;;;4998761;28;5123;-65
2023/02/22 16:35:51;;;;;;;;;;;;;;;;;;4989658;28;5320;-62
2023/02/22 16:38:16;;;;;;;;;;;;;;;;;;5001450;28;3178;-66
2023/02/22 16:41:00;;;;;;;;;;;;;;;;;;5003691;28;4957;-67
2023/02/22 16:43:30;;;;;;;;;;;;;;;;;;5002952;28;5036;-65
2023/02/22 16:45:55;;;;;;;;;;;;;;;;;;5008069;28;5147;-66
2023/02/22 16:48:22;;;;;;;;;;;;;;;;;;5006210;28;5153;-67
2023/02/22 16:50:47;;;;;;;;;;;;;;;;;;5002136;28;1179;-65
2023/02/22 16:53:12;;;;;;;;;;;;;;;;;;5004951;28;4635;-66
2023/02/22 16:55:40;;;;;;;;;;;;;;;;;;5006163;28;4488;-65
2023/02/22 16:58:08;;;;;;;;;;;;;;;;;;5004158;28;5141;-63
2023/02/22 17:00:34;;;;;;;;;;;;;;;;;;5004883;28;4499;-65
2023/02/22 17:03:02;;;;;;;;;;;;;;;;;;5005136;28;5219;-66
2023/02/22 17:05:27;;;;;;;;;;;;;;;;;;4997491;28;3770;-66
2023/02/22 17:07:53;;;;;;;;;;;;;;;;;;5005698;28;5106;-66
2023/02/22 17:10:18;;;;;;;;;;;;;;;;;;5005730;28;5068;-65